Aviation Digital Data Service (ADDS)

Output produced by METARs form (0201 UTC 21 September 2014)
found at http://aviationweather.gov/adds/metars/
 
KCRG 202323Z 2100/2124 36008KT P6SM VCSH SCT015 BKN040 OVC100 
     TEMPO 2100/2102 5SM RA BR BKN015 
     FM210500 33005KT P6SM FEW025 SCT250 
     FM211800 07005KT P6SM FEW250